createdAt,value
2018-06-12T00:00:57.639Z,96462.00
2018-06-12T00:03:39.040Z,96453.00
2018-06-12T00:06:20.342Z,96458.00
2018-06-12T00:09:01.606Z,96462.00
2018-06-12T00:11:42.745Z,96451.00
2018-06-12T00:14:24.900Z,96442.00
2018-06-12T00:17:06.311Z,96438.00
2018-06-12T00:19:47.596Z,96434.00
2018-06-12T00:22:28.891Z,96431.00
2018-06-12T00:25:10.057Z,96422.00
2018-06-12T00:27:51.555Z,96418.00
2018-06-12T00:30:32.838Z,96407.00
2018-06-12T00:33:17.058Z,96408.00
2018-06-12T00:35:58.810Z,96414.00
2018-06-12T00:38:40.129Z,96409.00
2018-06-12T00:41:21.467Z,96400.00
2018-06-12T00:44:02.972Z,96395.00
2018-06-12T00:46:44.368Z,96397.00
2018-06-12T00:49:26.167Z,96387.00
2018-06-12T00:52:07.564Z,96376.00
2018-06-12T00:54:48.860Z,96377.00
2018-06-12T00:57:30.195Z,96376.00
2018-06-12T01:00:11.440Z,96375.00
2018-06-12T01:02:53.334Z,96377.00
2018-06-12T01:05:34.629Z,96367.00
2018-06-12T01:08:15.907Z,96375.00
2018-06-12T01:10:57.719Z,96367.00
2018-06-12T01:13:38.995Z,96366.00
2018-06-12T01:16:20.336Z,96349.00
2018-06-12T01:19:01.747Z,96340.00
2018-06-12T01:21:43.209Z,96332.00
2018-06-12T01:24:26.286Z,96335.00
2018-06-12T01:27:07.753Z,96324.00
2018-06-12T01:29:49.156Z,96305.00
2018-06-12T01:32:30.336Z,96295.00
2018-06-12T01:35:11.355Z,96284.00
2018-06-12T01:37:53.306Z,96272.00
2018-06-12T01:40:34.880Z,96250.00
2018-06-12T01:43:16.029Z,96251.00
2018-06-12T01:45:57.617Z,96242.00
2018-06-12T01:48:38.992Z,96222.00
2018-06-12T01:51:20.312Z,96216.00
2018-06-12T01:54:01.595Z,96201.00
2018-06-12T01:56:42.998Z,96206.00
2018-06-12T02:02:46.904Z,96200.00
2018-06-12T02:05:28.680Z,96187.00
2018-06-12T02:08:10.071Z,96181.00
2018-06-12T02:10:52.214Z,96189.00
2018-06-12T02:13:33.921Z,96175.00
2018-06-12T02:16:15.377Z,96191.00
2018-06-12T02:18:56.912Z,96209.00
2018-06-12T02:21:38.394Z,96235.00
2018-06-12T02:24:19.657Z,96251.00
2018-06-12T02:27:01.232Z,96251.00
2018-06-12T02:29:42.557Z,96265.00
2018-06-12T02:32:24.135Z,96262.00
2018-06-12T02:35:05.557Z,96258.00
2018-06-12T02:37:46.964Z,96255.00
2018-06-12T02:40:58.511Z,96249.00
2018-06-12T02:43:41.174Z,96251.00
2018-06-12T02:46:24.043Z,96248.00
2018-06-12T02:49:05.204Z,96246.00
2018-06-12T02:51:46.436Z,96248.00
2018-06-12T02:54:27.900Z,96236.00
2018-06-12T02:57:09.227Z,96248.00
2018-06-12T02:59:51.604Z,96251.00
2018-06-12T03:02:32.941Z,96237.00
2018-06-12T03:05:14.197Z,96236.00
2018-06-12T03:07:56.356Z,96239.00
2018-06-12T03:10:38.016Z,96240.00
2018-06-12T03:13:19.531Z,96228.00
2018-06-12T03:16:01.038Z,96232.00
2018-06-12T03:18:42.196Z,96221.00
2018-06-12T03:21:24.025Z,96215.00
2018-06-12T03:24:06.638Z,96214.00
2018-06-12T03:26:47.834Z,96228.00
2018-06-12T03:29:29.535Z,96219.00
2018-06-12T03:32:10.864Z,96218.00
2018-06-12T03:34:53.016Z,96220.00
2018-06-12T03:37:34.540Z,96222.00
2018-06-12T03:40:15.854Z,96233.00
2018-06-12T03:42:57.228Z,96255.00
2018-06-12T03:45:38.601Z,96278.00
2018-06-12T03:48:21.275Z,96377.00
2018-06-12T03:51:02.435Z,96367.00
2018-06-12T03:53:44.051Z,96381.00
2018-06-12T03:56:26.265Z,96390.00
2018-06-12T03:59:07.831Z,96375.00
2018-06-12T04:01:49.623Z,96383.00
2018-06-12T04:04:32.024Z,96389.00
2018-06-12T04:07:13.408Z,96370.00
2018-06-12T04:09:54.992Z,96360.00
2018-06-12T04:12:36.448Z,96364.00
2018-06-12T04:15:17.783Z,96349.00
2018-06-12T04:17:59.226Z,96338.00
2018-06-12T04:20:53.271Z,96331.00
2018-06-12T04:23:34.684Z,96326.00
2018-06-12T04:26:16.025Z,96305.00
2018-06-12T04:28:57.361Z,96286.00
2018-06-12T04:31:39.016Z,96278.00
2018-06-12T04:34:21.432Z,96275.00
2018-06-12T04:37:02.847Z,96275.00
2018-06-12T04:39:44.156Z,96285.00
2018-06-12T04:42:25.701Z,96289.00
2018-06-12T04:45:07.565Z,96301.00
2018-06-12T04:47:48.897Z,96279.00
2018-06-12T04:50:31.256Z,96246.00
2018-06-12T04:53:12.627Z,96245.00
2018-06-12T04:55:54.199Z,96255.00
2018-06-12T04:58:35.510Z,96253.00
2018-06-12T05:01:16.782Z,96255.00
2018-06-12T05:03:58.377Z,96240.00
2018-06-12T05:06:40.194Z,96230.00
2018-06-12T05:09:22.328Z,96229.00
2018-06-12T05:12:04.708Z,96217.00
2018-06-12T05:14:46.409Z,96209.00
2018-06-12T05:17:27.818Z,96228.00
2018-06-12T05:20:09.213Z,96219.00
2018-06-12T05:22:51.416Z,96220.00
2018-06-12T05:25:32.848Z,96210.00
2018-06-12T05:28:14.164Z,96206.00
2018-06-12T05:30:55.809Z,96214.00
2018-06-12T05:33:36.892Z,96213.00
2018-06-12T05:36:18.192Z,96207.00
2018-06-12T05:38:59.463Z,96215.00
2018-06-12T05:41:41.909Z,96222.00
2018-06-12T05:44:24.145Z,96211.00
2018-06-12T05:47:05.720Z,96221.00
2018-06-12T05:49:47.170Z,96221.00
2018-06-12T05:52:28.490Z,96219.00
2018-06-12T05:55:09.788Z,96221.00
2018-06-12T05:57:51.361Z,96219.00
2018-06-12T06:00:33.669Z,96228.00
2018-06-12T06:03:15.171Z,96231.00
2018-06-12T06:05:56.845Z,96222.00
2018-06-12T06:08:38.374Z,96229.00
2018-06-12T06:11:21.401Z,96230.00
2018-06-12T06:14:03.545Z,96233.00
2018-06-12T06:16:44.812Z,96234.00
2018-06-12T06:19:26.479Z,96237.00
2018-06-12T06:22:07.881Z,96241.00
2018-06-12T06:24:49.265Z,96236.00
2018-06-12T06:27:30.893Z,96231.00
2018-06-12T06:30:12.212Z,96239.00
2018-06-12T06:32:54.144Z,96236.00
2018-06-12T06:35:35.445Z,96240.00
2018-06-12T06:38:16.741Z,96239.00
2018-06-12T06:40:59.139Z,96242.00
2018-06-12T06:43:40.479Z,96244.00
2018-06-12T06:46:22.231Z,96231.00
2018-06-12T06:49:03.771Z,96248.00
2018-06-12T06:51:45.137Z,96238.00
2018-06-12T06:54:26.991Z,96248.00
2018-06-12T06:57:08.411Z,96242.00
2018-06-12T06:59:49.876Z,96245.00
2018-06-12T07:02:31.536Z,96241.00
2018-06-12T07:05:13.052Z,96243.00
2018-06-12T07:07:55.163Z,96243.00
2018-06-12T07:10:37.147Z,96243.00
2018-06-12T07:13:18.480Z,96243.00
2018-06-12T07:15:59.938Z,96242.00
2018-06-12T07:18:42.363Z,96242.00
2018-06-12T07:21:25.335Z,96244.00
2018-06-12T07:24:06.669Z,96242.00
2018-06-12T07:26:48.093Z,96261.00
2018-06-12T07:29:29.494Z,96251.00
2018-06-12T07:32:10.876Z,96253.00
2018-06-12T07:34:52.908Z,96258.00
2018-06-12T07:37:34.257Z,96250.00
2018-06-12T07:40:15.701Z,96246.00
2018-06-12T07:42:57.111Z,96256.00
2018-06-12T07:45:38.539Z,96251.00
2018-06-12T07:48:20.009Z,96255.00
2018-06-12T07:51:01.328Z,96257.00
2018-06-12T07:53:42.673Z,96254.00
2018-06-12T07:56:26.646Z,96263.00
2018-06-12T07:59:07.996Z,96259.00
2018-06-12T08:01:49.501Z,96265.00
2018-06-12T08:04:31.904Z,96263.00
2018-06-12T08:07:13.249Z,96262.00
2018-06-12T08:09:55.067Z,96266.00
2018-06-12T08:12:36.546Z,96261.00
2018-06-12T08:15:18.654Z,96257.00
2018-06-12T08:18:00.092Z,96259.00
2018-06-12T08:20:41.380Z,96265.00
2018-06-12T08:23:24.340Z,96270.00
2018-06-12T08:26:23.413Z,96281.00
2018-06-12T08:29:05.664Z,96283.00
2018-06-12T08:31:47.060Z,96292.00
2018-06-12T08:34:28.440Z,96277.00
2018-06-12T08:37:09.725Z,96288.00
2018-06-12T08:39:51.716Z,96292.00
2018-06-12T08:42:32.904Z,96290.00
2018-06-12T08:45:14.101Z,96303.00
2018-06-12T08:47:56.029Z,96302.00
2018-06-12T08:50:37.487Z,96306.00
2018-06-12T08:53:18.924Z,96309.00
2018-06-12T08:56:00.343Z,96318.00
2018-06-12T08:58:41.660Z,96318.00
2018-06-12T09:01:24.752Z,96319.00
2018-06-12T09:04:06.157Z,96317.00
2018-06-12T09:06:47.599Z,96327.00
2018-06-12T09:09:29.172Z,96330.00
2018-06-12T09:12:10.221Z,96333.00
2018-06-12T09:14:51.818Z,96333.00
2018-06-12T09:17:37.684Z,96339.00
2018-06-12T09:20:25.578Z,96343.00
2018-06-12T09:23:06.944Z,96351.00
2018-06-12T09:25:49.076Z,96348.00
2018-06-12T09:28:31.259Z,96351.00
2018-06-12T09:31:12.770Z,96355.00
2018-06-12T09:33:54.384Z,96352.00
2018-06-12T09:36:36.398Z,96361.00
2018-06-12T09:39:17.938Z,96360.00
2018-06-12T09:41:59.426Z,96352.00
2018-06-12T09:44:40.781Z,96358.00
2018-06-12T09:47:22.605Z,96360.00
2018-06-12T09:50:04.040Z,96367.00
2018-06-12T09:52:45.343Z,96377.00
2018-06-12T09:55:27.468Z,96384.00
2018-06-12T09:58:08.934Z,96394.00
2018-06-12T10:00:55.629Z,96404.00
2018-06-12T10:03:37.092Z,96411.00
2018-06-12T10:06:18.382Z,96415.00
2018-06-12T10:09:00.544Z,96437.00
2018-06-12T10:11:41.832Z,96433.00
2018-06-12T10:14:24.443Z,96442.00
2018-06-12T10:17:05.944Z,96442.00
2018-06-12T10:19:47.420Z,96447.00
2018-06-12T10:22:28.925Z,96461.00
2018-06-12T10:25:10.256Z,96456.00
2018-06-12T10:27:52.473Z,96460.00
2018-06-12T10:30:35.365Z,96466.00
2018-06-12T10:33:16.771Z,96474.00
2018-06-12T10:35:58.166Z,96471.00
2018-06-12T10:38:39.561Z,96489.00
2018-06-12T10:41:21.677Z,96487.00
2018-06-12T10:44:03.868Z,96494.00
2018-06-12T10:46:45.202Z,96502.00
2018-06-12T10:49:27.483Z,96515.00
2018-06-12T10:52:09.464Z,96522.00
2018-06-12T10:54:51.689Z,96527.00
2018-06-12T10:57:33.233Z,96539.00
2018-06-12T11:00:14.539Z,96537.00
2018-06-12T11:02:56.530Z,96543.00
2018-06-12T11:05:38.019Z,96548.00
2018-06-12T11:08:19.444Z,96546.00
2018-06-12T11:11:01.242Z,96548.00
2018-06-12T11:13:42.667Z,96562.00
2018-06-12T11:16:25.960Z,96568.00
2018-06-12T11:19:07.172Z,96574.00
2018-06-12T11:21:48.513Z,96575.00
2018-06-12T11:24:29.938Z,96576.00
2018-06-12T11:27:11.088Z,96581.00
2018-06-12T11:29:53.332Z,96582.00
2018-06-12T11:32:34.844Z,96585.00
2018-06-12T11:35:16.192Z,96585.00
2018-06-12T11:37:58.465Z,96586.00
2018-06-12T11:40:39.770Z,96580.00
2018-06-12T11:43:21.896Z,96589.00
2018-06-12T11:46:03.590Z,96598.00
2018-06-12T11:48:44.911Z,96602.00
2018-06-12T11:51:27.883Z,96592.00
2018-06-12T11:54:10.041Z,96606.00
2018-06-12T11:56:51.797Z,96607.00
2018-06-12T11:59:33.308Z,96604.00
2018-06-12T12:02:14.671Z,96605.00
2018-06-12T12:04:56.138Z,96604.00
2018-06-12T12:07:37.385Z,96610.00
2018-06-12T12:10:21.807Z,96608.00
2018-06-12T12:13:04.092Z,96611.00
2018-06-12T12:15:45.873Z,96612.00
2018-06-12T12:18:27.388Z,96614.00
2018-06-12T12:21:09.384Z,96610.00
2018-06-12T12:23:50.701Z,96615.00
2018-06-12T12:26:32.809Z,96610.00
2018-06-12T12:29:14.222Z,96608.00
2018-06-12T12:31:56.123Z,96618.00
2018-06-12T12:34:37.515Z,96613.00
2018-06-12T12:37:19.034Z,96607.00
2018-06-12T12:40:01.544Z,96609.00
2018-06-12T12:42:43.012Z,96611.00
2018-06-12T12:45:24.683Z,96601.00
2018-06-12T12:48:06.040Z,96598.00
2018-06-12T12:50:47.569Z,96598.00
2018-06-12T12:53:28.980Z,96602.00
2018-06-12T12:56:10.661Z,96597.00
2018-06-12T12:58:53.123Z,96590.00
2018-06-12T13:01:34.650Z,96597.00
2018-06-12T13:04:16.096Z,96588.00
2018-06-12T13:06:57.535Z,96596.00
2018-06-12T13:09:39.034Z,96594.00
2018-06-12T13:12:20.961Z,96594.00
2018-06-12T13:15:02.328Z,96587.00
2018-06-12T13:17:43.873Z,96576.00
2018-06-12T13:20:25.631Z,96583.00
2018-06-12T13:23:07.387Z,96591.00
2018-06-12T13:25:48.897Z,96578.00
2018-06-12T13:28:30.275Z,96580.00
2018-06-12T13:31:11.629Z,96579.00
2018-06-12T13:33:55.638Z,96574.00
2018-06-12T13:36:37.660Z,96571.00
2018-06-12T13:39:19.014Z,96569.00
2018-06-12T13:42:00.901Z,96570.00
2018-06-12T13:44:43.223Z,96576.00
2018-06-12T13:47:25.124Z,96564.00
2018-06-12T13:50:06.483Z,96566.00
2018-06-12T13:52:47.812Z,96567.00
2018-06-12T13:55:29.256Z,96563.00
2018-06-12T13:58:10.677Z,96566.00
2018-06-12T14:00:53.536Z,96565.00
2018-06-12T14:03:37.845Z,96573.00
2018-06-12T14:06:19.146Z,96563.00
2018-06-12T14:09:00.499Z,96560.00
2018-06-12T14:11:42.071Z,96553.00
2018-06-12T14:14:24.926Z,96553.00
2018-06-12T14:17:06.315Z,96548.00
2018-06-12T14:19:47.503Z,96537.00
2018-06-12T14:22:28.833Z,96545.00
2018-06-12T14:25:10.646Z,96546.00
2018-06-12T14:27:52.584Z,96549.00
2018-06-12T14:30:33.877Z,96550.00
2018-06-12T14:33:15.227Z,96549.00
2018-06-12T14:35:57.091Z,96550.00
2018-06-12T14:38:38.827Z,96555.00
2018-06-12T14:41:20.168Z,96567.00
2018-06-12T14:44:02.674Z,96559.00
2018-06-12T14:46:44.576Z,96560.00
2018-06-12T14:49:28.043Z,96567.00
2018-06-12T14:52:09.409Z,96561.00
2018-06-12T14:54:51.064Z,96570.00
2018-06-12T14:57:33.504Z,96567.00
2018-06-12T15:00:15.092Z,96564.00
2018-06-12T15:02:57.827Z,96567.00
2018-06-12T15:05:39.299Z,96565.00
2018-06-12T15:08:20.883Z,96569.00
2018-06-12T15:11:02.520Z,96570.00
2018-06-12T15:13:43.951Z,96569.00
2018-06-12T15:16:29.010Z,96569.00
2018-06-12T15:19:10.439Z,96575.00
2018-06-12T15:21:51.828Z,96572.00
2018-06-12T15:24:33.252Z,96573.00
2018-06-12T15:27:15.381Z,96561.00
2018-06-12T15:29:57.400Z,96555.00
2018-06-12T15:32:38.985Z,96553.00
2018-06-12T15:35:20.596Z,96543.00
2018-06-12T15:38:02.772Z,96547.00
2018-06-12T15:40:44.790Z,96544.00
2018-06-12T15:43:26.611Z,96542.00
2018-06-12T15:46:07.876Z,96546.00
2018-06-12T15:48:49.279Z,96536.00
2018-06-12T15:51:31.036Z,96544.00
2018-06-12T15:54:12.389Z,96547.00
2018-06-12T15:56:54.615Z,96540.00
2018-06-12T15:59:36.694Z,96542.00
2018-06-12T16:02:18.172Z,96537.00
2018-06-12T16:04:59.893Z,96532.00
2018-06-12T16:07:41.360Z,96533.00
2018-06-12T16:10:24.247Z,96534.00
2018-06-12T16:13:06.727Z,96529.00
2018-06-12T16:15:48.133Z,96533.00
2018-06-12T16:18:29.503Z,96529.00
2018-06-12T16:21:12.736Z,96520.00
2018-06-12T16:23:55.835Z,96526.00
2018-06-12T16:26:37.728Z,96519.00
2018-06-12T16:29:19.184Z,96524.00
2018-06-12T16:32:01.048Z,96515.00
2018-06-12T16:34:42.589Z,96518.00
2018-06-12T16:37:24.654Z,96523.00
2018-06-12T16:40:06.119Z,96521.00
2018-06-12T16:42:47.885Z,96520.00
2018-06-12T16:45:29.336Z,96512.00
2018-06-12T16:48:10.717Z,96514.00
2018-06-12T16:50:53.068Z,96515.00
2018-06-12T16:53:34.911Z,96516.00
2018-06-12T16:56:16.228Z,96520.00
2018-06-12T16:58:58.096Z,96524.00
2018-06-12T17:01:39.469Z,96526.00
2018-06-12T17:04:20.967Z,96525.00
2018-06-12T17:07:04.347Z,96523.00
2018-06-12T17:09:46.143Z,96516.00
2018-06-12T17:12:28.573Z,96510.00
2018-06-12T17:15:09.795Z,96521.00
2018-06-12T17:17:51.140Z,96511.00
2018-06-12T17:20:32.948Z,96507.00
2018-06-12T17:23:14.181Z,96505.00
2018-06-12T17:25:55.892Z,96500.00
2018-06-12T17:28:37.392Z,96505.00
2018-06-12T17:31:18.919Z,96505.00
2018-06-12T17:34:02.453Z,96509.00
2018-06-12T17:36:44.956Z,96514.00
2018-06-12T17:39:26.929Z,96519.00
2018-06-12T17:42:10.179Z,96508.00
2018-06-12T17:44:55.462Z,96511.00
2018-06-12T17:47:36.795Z,96513.00
2018-06-12T17:50:19.388Z,96516.00
2018-06-12T17:53:00.820Z,96523.00
2018-06-12T17:55:42.233Z,96529.00
2018-06-12T17:58:24.545Z,96521.00
2018-06-12T18:01:05.892Z,96524.00
2018-06-12T18:03:47.706Z,96525.00
2018-06-12T18:06:29.288Z,96521.00
2018-06-12T18:09:10.685Z,96529.00
2018-06-12T18:11:52.205Z,96529.00
2018-06-12T18:14:33.803Z,96538.00
2018-06-12T18:17:15.244Z,96532.00
2018-06-12T18:20:03.237Z,96527.00
2018-06-12T18:22:44.816Z,96527.00
2018-06-12T18:25:27.445Z,96534.00
2018-06-12T18:28:08.905Z,96540.00
2018-06-12T18:30:50.399Z,96537.00
2018-06-12T18:33:31.822Z,96529.00
2018-06-12T18:36:13.265Z,96532.00
2018-06-12T18:38:55.481Z,96523.00
2018-06-12T18:41:38.453Z,96515.00
2018-06-12T18:44:20.740Z,96523.00
2018-06-12T18:47:02.250Z,96528.00
2018-06-12T18:49:43.681Z,96535.00
2018-06-12T18:52:25.691Z,96540.00
2018-06-12T18:55:07.135Z,96544.00
2018-06-12T18:57:48.659Z,96547.00
2018-06-12T19:00:29.960Z,96541.00
2018-06-12T19:03:11.685Z,96556.00
2018-06-12T19:05:54.131Z,96562.00
2018-06-12T19:08:35.540Z,96561.00
2018-06-12T19:11:16.986Z,96561.00
2018-06-12T19:13:59.071Z,96554.00
2018-06-12T19:16:41.240Z,96560.00
2018-06-12T19:19:22.592Z,96556.00
2018-06-12T19:22:04.878Z,96558.00
2018-06-12T19:24:46.860Z,96554.00
2018-06-12T19:27:29.195Z,96563.00
2018-06-12T19:30:15.655Z,96566.00
2018-06-12T19:32:58.620Z,96566.00
2018-06-12T19:35:40.180Z,96560.00
2018-06-12T19:38:21.812Z,96560.00
2018-06-12T19:41:04.019Z,96560.00
2018-06-12T19:43:45.394Z,96560.00
2018-06-12T19:46:28.299Z,96550.00
2018-06-12T19:49:09.733Z,96548.00
2018-06-12T19:51:51.196Z,96544.00
2018-06-12T19:54:32.579Z,96543.00
2018-06-12T19:57:14.061Z,96544.00
2018-06-12T19:59:59.035Z,96528.00
2018-06-12T20:02:40.999Z,96540.00
2018-06-12T20:05:22.880Z,96535.00
2018-06-12T20:08:04.564Z,96526.00
2018-06-12T20:10:45.915Z,96520.00
2018-06-12T20:13:27.857Z,96531.00
2018-06-12T20:16:09.453Z,96528.00
2018-06-12T20:18:51.306Z,96529.00
2018-06-12T20:21:32.720Z,96518.00
2018-06-12T20:24:14.363Z,96509.00
2018-06-12T20:26:56.358Z,96503.00
2018-06-12T20:29:37.727Z,96488.00
2018-06-12T20:32:19.175Z,96502.00
2018-06-12T20:35:00.561Z,96507.00
2018-06-12T20:37:43.003Z,96504.00
2018-06-12T20:40:27.446Z,96510.00
2018-06-12T20:43:09.559Z,96519.00
2018-06-12T20:45:51.095Z,96504.00
2018-06-12T20:48:32.620Z,96501.00
2018-06-12T20:51:14.245Z,96499.00
2018-06-12T20:53:56.264Z,96502.00
2018-06-12T20:56:37.526Z,96498.00
2018-06-12T20:59:18.940Z,96499.00
2018-06-12T21:02:00.364Z,96499.00
2018-06-12T21:04:41.675Z,96496.00
2018-06-12T21:07:23.192Z,96507.00
2018-06-12T21:10:05.249Z,96514.00
2018-06-12T21:12:46.734Z,96516.00
2018-06-12T21:15:29.435Z,96516.00
2018-06-12T21:18:10.745Z,96531.00
2018-06-12T21:20:52.220Z,96531.00
2018-06-12T21:23:33.562Z,96524.00
2018-06-12T21:26:14.934Z,96520.00
2018-06-12T21:28:57.092Z,96519.00
2018-06-12T21:31:38.911Z,96513.00
2018-06-12T21:34:20.918Z,96515.00
2018-06-12T21:37:02.694Z,96526.00
2018-06-12T21:39:44.228Z,96528.00
2018-06-12T21:42:28.744Z,96524.00
2018-06-12T21:45:10.083Z,96522.00
2018-06-12T21:47:51.528Z,96520.00
2018-06-12T21:50:32.849Z,96521.00
2018-06-12T21:53:14.187Z,96529.00
2018-06-12T21:55:56.044Z,96524.00
2018-06-12T21:58:44.312Z,96519.00
2018-06-12T22:01:28.180Z,96517.00
2018-06-12T22:04:09.669Z,96511.00
2018-06-12T22:06:50.928Z,96510.00
2018-06-12T22:09:32.274Z,96507.00
2018-06-12T22:12:13.627Z,96502.00
2018-06-12T22:14:55.142Z,96498.00
2018-06-12T22:17:49.653Z,96504.00
2018-06-12T22:20:30.985Z,96504.00
2018-06-12T22:23:12.364Z,96509.00
2018-06-12T22:25:53.669Z,96495.00
2018-06-12T22:28:35.251Z,96497.00
2018-06-12T22:31:16.621Z,96501.00
2018-06-12T22:33:58.073Z,96500.00
2018-06-12T22:36:39.428Z,96505.00
2018-06-12T22:39:20.752Z,96497.00
2018-06-12T22:42:02.062Z,96494.00
2018-06-12T22:44:43.416Z,96493.00
2018-06-12T22:47:26.121Z,96495.00
2018-06-12T22:50:08.685Z,96499.00
2018-06-12T22:52:50.723Z,96489.00
2018-06-12T22:55:31.926Z,96489.00
2018-06-12T22:58:13.319Z,96495.00
2018-06-12T23:00:55.011Z,96497.00
2018-06-12T23:03:36.475Z,96492.00
2018-06-12T23:06:17.819Z,96494.00
2018-06-12T23:09:00.434Z,96494.00
2018-06-12T23:11:41.871Z,96490.00
2018-06-12T23:14:25.360Z,96493.00
2018-06-12T23:17:06.872Z,96479.00
2018-06-12T23:20:05.327Z,96487.00
2018-06-12T23:22:47.079Z,96492.00
2018-06-12T23:25:29.569Z,96486.00
2018-06-12T23:28:11.142Z,96488.00
2018-06-12T23:30:52.614Z,96492.00
2018-06-12T23:33:35.077Z,96483.00
2018-06-12T23:36:16.532Z,96469.00
2018-06-12T23:38:57.969Z,96473.00
2018-06-12T23:41:39.451Z,96479.00
2018-06-12T23:44:20.666Z,96478.00
2018-06-12T23:47:02.076Z,96471.00
2018-06-12T23:49:44.000Z,96459.00
2018-06-12T23:52:26.117Z,96459.00
2018-06-12T23:55:08.604Z,96463.00
2018-06-12T23:57:50.204Z,96449.00
